Golden, Oklahoma
Current Conditions -  °F | °C
As of 1:55 PM on Saturday 25 Oct 2014 (Local Time) from K4O4 Reporting Station
Clear Clear  
Wind Chill: 82°   Ceiling: Unl
Heat Index: 82°   Visibility: 10mi
Dew Point: 59°   Wind: 6mph
Humidity: 45%   Direction: 220°SW
Pressure: 30.1"   Gusts: NA
Location:  34.03°N, 94.9°W
Report Text: K4O4 251855Z AUTO 22005KT 10SM CLR 28/15 A3010 RMK AO2
Loading
Personal Weather Stations






























Interactive Weather Map
Tropical Storm Tracking
New forecast layout! Learn more

10-Day Weather Forecast

Advertisements
Track Severe Weather on mobile